sensor_id;sensor_type;location;lat;lon;timestamp;P1;durP1;ratioP1;P2;durP2;ratioP2
11048;SDS011;5577;42.706;23.160;2023-01-16T00:01:17;45.00;;;25.27;;
11048;SDS011;5577;42.706;23.160;2023-01-16T00:04:03;43.03;;;25.67;;
11048;SDS011;5577;42.706;23.160;2023-01-16T00:06:47;42.77;;;24.80;;
11048;SDS011;5577;42.706;23.160;2023-01-16T00:09:31;45.90;;;25.33;;
11048;SDS011;5577;42.706;23.160;2023-01-16T00:12:15;46.27;;;25.23;;
11048;SDS011;5577;42.706;23.160;2023-01-16T00:14:59;43.33;;;23.83;;
11048;SDS011;5577;42.706;23.160;2023-01-16T00:17:44;40.33;;;23.87;;
11048;SDS011;5577;42.706;23.160;2023-01-16T00:20:28;40.13;;;23.80;;
11048;SDS011;5577;42.706;23.160;2023-01-16T00:23:12;51.40;;;28.23;;
11048;SDS011;5577;42.706;23.160;2023-01-16T00:25:55;50.43;;;26.60;;
11048;SDS011;5577;42.706;23.160;2023-01-16T00:28:39;43.63;;;24.33;;
11048;SDS011;5577;42.706;23.160;2023-01-16T00:31:24;45.50;;;25.10;;
11048;SDS011;5577;42.706;23.160;2023-01-16T00:34:09;42.20;;;23.90;;
11048;SDS011;5577;42.706;23.160;2023-01-16T00:36:52;45.07;;;24.50;;
11048;SDS011;5577;42.706;23.160;2023-01-16T00:39:36;42.73;;;23.23;;
11048;SDS011;5577;42.706;23.160;2023-01-16T00:42:22;43.80;;;23.87;;
11048;SDS011;5577;42.706;23.160;2023-01-16T00:45:07;43.77;;;24.83;;
11048;SDS011;5577;42.706;23.160;2023-01-16T00:47:51;41.47;;;24.20;;
11048;SDS011;5577;42.706;23.160;2023-01-16T00:50:35;44.80;;;23.33;;
11048;SDS011;5577;42.706;23.160;2023-01-16T00:53:19;42.00;;;22.97;;
11048;SDS011;5577;42.706;23.160;2023-01-16T00:56:03;39.00;;;21.53;;
11048;SDS011;5577;42.706;23.160;2023-01-16T00:58:48;46.80;;;26.20;;
11048;SDS011;5577;42.706;23.160;2023-01-16T01:01:32;44.47;;;24.43;;
11048;SDS011;5577;42.706;23.160;2023-01-16T01:04:15;42.97;;;23.97;;
11048;SDS011;5577;42.706;23.160;2023-01-16T01:07:00;37.90;;;21.13;;
11048;SDS011;5577;42.706;23.160;2023-01-16T01:09:44;45.80;;;24.87;;
11048;SDS011;5577;42.706;23.160;2023-01-16T01:12:28;45.10;;;25.10;;
11048;SDS011;5577;42.706;23.160;2023-01-16T01:15:11;44.10;;;25.13;;
11048;SDS011;5577;42.706;23.160;2023-01-16T01:17:56;41.50;;;23.00;;
11048;SDS011;5577;42.706;23.160;2023-01-16T01:20:41;41.27;;;20.17;;
11048;SDS011;5577;42.706;23.160;2023-01-16T01:23:25;42.77;;;23.43;;
11048;SDS011;5577;42.706;23.160;2023-01-16T01:26:10;39.67;;;21.47;;
11048;SDS011;5577;42.706;23.160;2023-01-16T01:28:58;37.00;;;21.57;;
11048;SDS011;5577;42.706;23.160;2023-01-16T01:31:42;37.60;;;20.23;;
11048;SDS011;5577;42.706;23.160;2023-01-16T01:34:26;41.13;;;21.27;;
11048;SDS011;5577;42.706;23.160;2023-01-16T01:37:10;35.57;;;20.53;;
11048;SDS011;5577;42.706;23.160;2023-01-16T01:39:54;39.40;;;20.83;;
11048;SDS011;5577;42.706;23.160;2023-01-16T01:42:39;36.43;;;20.53;;
11048;SDS011;5577;42.706;23.160;2023-01-16T01:45:27;36.70;;;18.27;;
11048;SDS011;5577;42.706;23.160;2023-01-16T01:51:11;43.87;;;23.10;;
11048;SDS011;5577;42.706;23.160;2023-01-16T01:54:05;48.67;;;23.77;;
11048;SDS011;5577;42.706;23.160;2023-01-16T01:56:55;38.80;;;21.70;;
11048;SDS011;5577;42.706;23.160;2023-01-16T02:00:02;36.87;;;21.10;;
11048;SDS011;5577;42.706;23.160;2023-01-16T02:02:55;36.30;;;20.60;;
11048;SDS011;5577;42.706;23.160;2023-01-16T02:05:55;37.63;;;22.87;;
11048;SDS011;5577;42.706;23.160;2023-01-16T02:08:42;38.77;;;21.53;;
11048;SDS011;5577;42.706;23.160;2023-01-16T02:11:31;34.77;;;20.30;;
11048;SDS011;5577;42.706;23.160;2023-01-16T02:14:20;39.83;;;22.33;;
11048;SDS011;5577;42.706;23.160;2023-01-16T02:17:06;38.63;;;20.87;;
11048;SDS011;5577;42.706;23.160;2023-01-16T02:20:19;34.50;;;20.17;;
11048;SDS011;5577;42.706;23.160;2023-01-16T02:42:04;34.53;;;18.93;;
11048;SDS011;5577;42.706;23.160;2023-01-16T02:56:37;35.50;;;16.80;;
11048;SDS011;5577;42.706;23.160;2023-01-16T02:59:25;36.87;;;20.70;;
11048;SDS011;5577;42.706;23.160;2023-01-16T03:02:12;35.93;;;18.40;;
11048;SDS011;5577;42.706;23.160;2023-01-16T03:04:56;40.47;;;22.20;;
11048;SDS011;5577;42.706;23.160;2023-01-16T03:20:44;36.37;;;20.10;;
11048;SDS011;5577;42.706;23.160;2023-01-16T03:23:55;36.63;;;20.87;;
11048;SDS011;5577;42.706;23.160;2023-01-16T03:26:46;37.60;;;20.17;;
11048;SDS011;5577;42.706;23.160;2023-01-16T03:29:38;39.07;;;19.87;;
11048;SDS011;5577;42.706;23.160;2023-01-16T03:35:37;35.97;;;20.27;;
11048;SDS011;5577;42.706;23.160;2023-01-16T03:38:28;60.07;;;22.67;;
11048;SDS011;5577;42.706;23.160;2023-01-16T03:41:15;40.30;;;22.03;;
11048;SDS011;5577;42.706;23.160;2023-01-16T03:44:03;53.07;;;24.70;;
11048;SDS011;5577;42.706;23.160;2023-01-16T03:46:53;54.77;;;28.50;;
11048;SDS011;5577;42.706;23.160;2023-01-16T03:49:43;74.87;;;33.10;;
11048;SDS011;5577;42.706;23.160;2023-01-16T03:52:39;64.20;;;30.13;;
11048;SDS011;5577;42.706;23.160;2023-01-16T03:58:45;51.37;;;26.40;;
11048;SDS011;5577;42.706;23.160;2023-01-16T04:02:06;60.47;;;29.00;;
11048;SDS011;5577;42.706;23.160;2023-01-16T04:07:43;63.57;;;28.23;;
11048;SDS011;5577;42.706;23.160;2023-01-16T04:10:30;60.00;;;26.77;;
11048;SDS011;5577;42.706;23.160;2023-01-16T04:13:21;56.47;;;26.70;;
11048;SDS011;5577;42.706;23.160;2023-01-16T04:16:10;74.70;;;28.57;;
11048;SDS011;5577;42.706;23.160;2023-01-16T04:19:01;51.73;;;24.13;;
11048;SDS011;5577;42.706;23.160;2023-01-16T04:21:47;47.53;;;24.33;;
11048;SDS011;5577;42.706;23.160;2023-01-16T04:24:30;50.03;;;23.07;;
11048;SDS011;5577;42.706;23.160;2023-01-16T04:27:16;51.67;;;24.67;;
11048;SDS011;5577;42.706;23.160;2023-01-16T04:30:00;49.40;;;23.90;;
11048;SDS011;5577;42.706;23.160;2023-01-16T04:32:44;49.70;;;24.07;;
11048;SDS011;5577;42.706;23.160;2023-01-16T04:35:28;53.73;;;24.80;;
11048;SDS011;5577;42.706;23.160;2023-01-16T04:38:13;50.27;;;22.67;;
11048;SDS011;5577;42.706;23.160;2023-01-16T04:40:57;49.90;;;23.17;;
11048;SDS011;5577;42.706;23.160;2023-01-16T04:43:41;57.10;;;25.87;;
11048;SDS011;5577;42.706;23.160;2023-01-16T04:46:25;65.07;;;24.33;;
11048;SDS011;5577;42.706;23.160;2023-01-16T04:49:09;58.80;;;23.57;;
11048;SDS011;5577;42.706;23.160;2023-01-16T04:51:53;55.47;;;23.47;;
11048;SDS011;5577;42.706;23.160;2023-01-16T04:54:37;55.20;;;22.70;;
11048;SDS011;5577;42.706;23.160;2023-01-16T04:57:21;71.47;;;23.83;;
11048;SDS011;5577;42.706;23.160;2023-01-16T05:00:05;61.50;;;21.93;;
11048;SDS011;5577;42.706;23.160;2023-01-16T05:02:52;87.47;;;24.27;;
11048;SDS011;5577;42.706;23.160;2023-01-16T05:05:37;50.00;;;22.80;;
11048;SDS011;5577;42.706;23.160;2023-01-16T05:08:22;59.60;;;23.00;;
11048;SDS011;5577;42.706;23.160;2023-01-16T05:11:11;75.27;;;24.10;;
11048;SDS011;5577;42.706;23.160;2023-01-16T05:13:55;50.13;;;23.50;;
11048;SDS011;5577;42.706;23.160;2023-01-16T05:16:39;129.50;;;26.50;;
11048;SDS011;5577;42.706;23.160;2023-01-16T05:19:25;63.30;;;25.50;;
11048;SDS011;5577;42.706;23.160;2023-01-16T05:22:09;83.20;;;28.03;;
11048;SDS011;5577;42.706;23.160;2023-01-16T05:24:53;110.87;;;27.67;;
11048;SDS011;5577;42.706;23.160;2023-01-16T05:27:37;79.93;;;26.40;;
11048;SDS011;5577;42.706;23.160;2023-01-16T05:30:21;185.17;;;28.77;;
11048;SDS011;5577;42.706;23.160;2023-01-16T05:33:06;101.67;;;23.67;;
11048;SDS011;5577;42.706;23.160;2023-01-16T05:35:50;146.97;;;23.10;;
11048;SDS011;5577;42.706;23.160;2023-01-16T05:38:34;125.10;;;24.00;;
11048;SDS011;5577;42.706;23.160;2023-01-16T05:41:18;85.87;;;20.67;;
11048;SDS011;5577;42.706;23.160;2023-01-16T05:44:02;90.47;;;21.60;;
11048;SDS011;5577;42.706;23.160;2023-01-16T05:46:46;61.87;;;21.77;;
11048;SDS011;5577;42.706;23.160;2023-01-16T05:49:30;99.07;;;22.30;;
11048;SDS011;5577;42.706;23.160;2023-01-16T05:52:14;145.87;;;25.30;;
11048;SDS011;5577;42.706;23.160;2023-01-16T05:54:58;50.80;;;21.67;;
11048;SDS011;5577;42.706;23.160;2023-01-16T05:57:41;62.70;;;23.77;;
11048;SDS011;5577;42.706;23.160;2023-01-16T06:00:26;118.07;;;25.37;;
11048;SDS011;5577;42.706;23.160;2023-01-16T06:03:10;76.43;;;22.83;;
11048;SDS011;5577;42.706;23.160;2023-01-16T06:05:54;70.43;;;25.17;;
11048;SDS011;5577;42.706;23.160;2023-01-16T06:08:39;59.67;;;25.73;;
11048;SDS011;5577;42.706;23.160;2023-01-16T06:11:23;58.83;;;26.20;;
11048;SDS011;5577;42.706;23.160;2023-01-16T06:14:07;73.97;;;26.37;;
11048;SDS011;5577;42.706;23.160;2023-01-16T06:16:51;61.17;;;29.20;;
11048;SDS011;5577;42.706;23.160;2023-01-16T06:19:34;74.70;;;25.57;;
11048;SDS011;5577;42.706;23.160;2023-01-16T06:22:19;57.23;;;23.77;;
11048;SDS011;5577;42.706;23.160;2023-01-16T06:25:04;52.33;;;24.47;;
11048;SDS011;5577;42.706;23.160;2023-01-16T06:27:49;61.00;;;25.30;;
11048;SDS011;5577;42.706;23.160;2023-01-16T06:30:34;53.23;;;24.40;;
11048;SDS011;5577;42.706;23.160;2023-01-16T06:33:18;51.33;;;25.83;;
11048;SDS011;5577;42.706;23.160;2023-01-16T06:36:01;57.20;;;25.97;;
11048;SDS011;5577;42.706;23.160;2023-01-16T06:38:46;57.17;;;26.60;;
11048;SDS011;5577;42.706;23.160;2023-01-16T06:41:30;51.60;;;24.53;;
11048;SDS011;5577;42.706;23.160;2023-01-16T06:44:14;43.87;;;21.93;;
11048;SDS011;5577;42.706;23.160;2023-01-16T06:46:58;46.33;;;24.67;;
11048;SDS011;5577;42.706;23.160;2023-01-16T06:49:43;44.53;;;22.50;;
11048;SDS011;5577;42.706;23.160;2023-01-16T06:52:26;47.13;;;24.03;;
11048;SDS011;5577;42.706;23.160;2023-01-16T06:55:10;44.77;;;25.70;;
11048;SDS011;5577;42.706;23.160;2023-01-16T06:57:56;54.20;;;29.33;;
11048;SDS011;5577;42.706;23.160;2023-01-16T07:00:40;54.80;;;28.83;;
11048;SDS011;5577;42.706;23.160;2023-01-16T07:03:24;85.40;;;40.87;;
11048;SDS011;5577;42.706;23.160;2023-01-16T07:06:08;50.30;;;27.77;;
11048;SDS011;5577;42.706;23.160;2023-01-16T07:08:52;48.17;;;26.53;;
11048;SDS011;5577;42.706;23.160;2023-01-16T07:11:36;40.87;;;23.77;;
11048;SDS011;5577;42.706;23.160;2023-01-16T07:14:20;41.27;;;23.47;;
11048;SDS011;5577;42.706;23.160;2023-01-16T07:17:23;37.00;;;22.33;;
11048;SDS011;5577;42.706;23.160;2023-01-16T07:20:26;40.63;;;23.13;;
11048;SDS011;5577;42.706;23.160;2023-01-16T07:23:32;42.77;;;24.43;;
11048;SDS011;5577;42.706;23.160;2023-01-16T07:26:18;35.77;;;21.63;;
11048;SDS011;5577;42.706;23.160;2023-01-16T07:29:03;37.57;;;20.33;;
11048;SDS011;5577;42.706;23.160;2023-01-16T07:31:48;39.70;;;21.30;;
11048;SDS011;5577;42.706;23.160;2023-01-16T07:34:32;32.83;;;19.20;;
11048;SDS011;5577;42.706;23.160;2023-01-16T07:37:18;40.73;;;22.90;;
11048;SDS011;5577;42.706;23.160;2023-01-16T07:40:02;35.83;;;22.00;;
11048;SDS011;5577;42.706;23.160;2023-01-16T07:42:49;37.90;;;22.07;;
11048;SDS011;5577;42.706;23.160;2023-01-16T07:45:34;37.17;;;20.73;;
11048;SDS011;5577;42.706;23.160;2023-01-16T07:48:19;41.67;;;26.10;;
11048;SDS011;5577;42.706;23.160;2023-01-16T07:51:04;38.33;;;22.60;;
11048;SDS011;5577;42.706;23.160;2023-01-16T07:53:48;34.60;;;20.73;;
11048;SDS011;5577;42.706;23.160;2023-01-16T07:56:32;35.67;;;20.90;;
11048;SDS011;5577;42.706;23.160;2023-01-16T07:59:16;33.93;;;18.17;;
11048;SDS011;5577;42.706;23.160;2023-01-16T08:02:00;29.13;;;18.03;;
11048;SDS011;5577;42.706;23.160;2023-01-16T08:04:45;29.80;;;17.93;;
11048;SDS011;5577;42.706;23.160;2023-01-16T08:07:29;41.13;;;23.83;;
11048;SDS011;5577;42.706;23.160;2023-01-16T08:10:13;34.10;;;21.30;;
11048;SDS011;5577;42.706;23.160;2023-01-16T08:12:57;36.10;;;21.93;;
11048;SDS011;5577;42.706;23.160;2023-01-16T08:15:41;36.60;;;22.17;;
11048;SDS011;5577;42.706;23.160;2023-01-16T08:18:25;43.73;;;25.00;;
11048;SDS011;5577;42.706;23.160;2023-01-16T08:21:09;46.33;;;25.33;;
11048;SDS011;5577;42.706;23.160;2023-01-16T08:23:53;36.87;;;23.10;;
11048;SDS011;5577;42.706;23.160;2023-01-16T08:26:37;36.50;;;22.73;;
11048;SDS011;5577;42.706;23.160;2023-01-16T08:29:21;39.07;;;23.37;;
11048;SDS011;5577;42.706;23.160;2023-01-16T08:32:06;46.50;;;26.50;;
11048;SDS011;5577;42.706;23.160;2023-01-16T08:34:50;35.47;;;21.23;;
11048;SDS011;5577;42.706;23.160;2023-01-16T08:37:34;32.30;;;19.97;;
11048;SDS011;5577;42.706;23.160;2023-01-16T08:40:19;31.47;;;18.93;;
11048;SDS011;5577;42.706;23.160;2023-01-16T08:43:03;34.77;;;20.43;;
11048;SDS011;5577;42.706;23.160;2023-01-16T08:46:16;33.13;;;19.57;;
11048;SDS011;5577;42.706;23.160;2023-01-16T08:49:22;38.83;;;23.30;;
11048;SDS011;5577;42.706;23.160;2023-01-16T08:52:25;37.13;;;21.80;;
11048;SDS011;5577;42.706;23.160;2023-01-16T08:55:10;33.77;;;20.03;;
11048;SDS011;5577;42.706;23.160;2023-01-16T08:57:54;35.70;;;20.87;;
11048;SDS011;5577;42.706;23.160;2023-01-16T09:00:42;33.97;;;20.77;;
11048;SDS011;5577;42.706;23.160;2023-01-16T09:03:26;41.80;;;24.00;;
11048;SDS011;5577;42.706;23.160;2023-01-16T09:06:10;40.37;;;22.90;;
11048;SDS011;5577;42.706;23.160;2023-01-16T09:08:54;37.77;;;23.07;;
11048;SDS011;5577;42.706;23.160;2023-01-16T09:11:38;41.17;;;23.93;;
11048;SDS011;5577;42.706;23.160;2023-01-16T09:14:41;43.63;;;24.10;;
11048;SDS011;5577;42.706;23.160;2023-01-16T09:17:26;47.03;;;25.73;;
11048;SDS011;5577;42.706;23.160;2023-01-16T09:20:10;54.30;;;29.33;;
11048;SDS011;5577;42.706;23.160;2023-01-16T09:22:58;62.10;;;34.30;;
11048;SDS011;5577;42.706;23.160;2023-01-16T09:25:43;58.10;;;30.73;;
11048;SDS011;5577;42.706;23.160;2023-01-16T09:28:27;55.73;;;32.20;;
11048;SDS011;5577;42.706;23.160;2023-01-16T09:31:11;58.20;;;32.93;;
11048;SDS011;5577;42.706;23.160;2023-01-16T09:33:55;83.07;;;40.90;;
11048;SDS011;5577;42.706;23.160;2023-01-16T09:36:39;69.87;;;38.30;;
11048;SDS011;5577;42.706;23.160;2023-01-16T09:39:23;56.83;;;33.00;;
11048;SDS011;5577;42.706;23.160;2023-01-16T09:45:20;42.87;;;27.07;;
11048;SDS011;5577;42.706;23.160;2023-01-16T09:52:02;46.00;;;27.67;;
11048;SDS011;5577;42.706;23.160;2023-01-16T09:54:52;38.27;;;24.60;;
11048;SDS011;5577;42.706;23.160;2023-01-16T09:58:02;35.30;;;22.50;;
11048;SDS011;5577;42.706;23.160;2023-01-16T10:04:19;35.87;;;23.90;;
11048;SDS011;5577;42.706;23.160;2023-01-16T10:19:08;12.63;;;9.03;;
11048;SDS011;5577;42.706;23.160;2023-01-16T10:22:21;12.17;;;7.97;;
11048;SDS011;5577;42.706;23.160;2023-01-16T10:28:39;14.13;;;8.73;;
11048;SDS011;5577;42.706;23.160;2023-01-16T10:31:54;8.23;;;5.90;;
11048;SDS011;5577;42.706;23.160;2023-01-16T10:37:22;8.63;;;6.50;;
11048;SDS011;5577;42.706;23.160;2023-01-16T10:40:13;10.63;;;6.83;;
11048;SDS011;5577;42.706;23.160;2023-01-16T10:43:02;11.30;;;7.97;;
11048;SDS011;5577;42.706;23.160;2023-01-16T10:46:14;8.43;;;6.90;;
11048;SDS011;5577;42.706;23.160;2023-01-16T10:49:20;9.43;;;6.67;;
11048;SDS011;5577;42.706;23.160;2023-01-16T10:52:10;7.87;;;6.53;;
11048;SDS011;5577;42.706;23.160;2023-01-16T10:54:55;8.23;;;6.80;;
11048;SDS011;5577;42.706;23.160;2023-01-16T10:57:52;38.17;;;24.07;;
11048;SDS011;5577;42.706;23.160;2023-01-16T11:00:39;35.90;;;23.67;;
11048;SDS011;5577;42.706;23.160;2023-01-16T11:09:04;36.10;;;24.10;;
11048;SDS011;5577;42.706;23.160;2023-01-16T11:11:57;35.07;;;24.70;;
11048;SDS011;5577;42.706;23.160;2023-01-16T11:15:00;36.37;;;25.10;;
11048;SDS011;5577;42.706;23.160;2023-01-16T11:18:03;40.00;;;26.57;;
11048;SDS011;5577;42.706;23.160;2023-01-16T11:21:16;45.33;;;29.60;;
11048;SDS011;5577;42.706;23.160;2023-01-16T11:24:21;36.23;;;25.40;;
11048;SDS011;5577;42.706;23.160;2023-01-16T11:27:22;33.10;;;22.53;;
11048;SDS011;5577;42.706;23.160;2023-01-16T11:30:15;31.60;;;20.53;;
11048;SDS011;5577;42.706;23.160;2023-01-16T11:33:03;29.17;;;20.53;;
11048;SDS011;5577;42.706;23.160;2023-01-16T11:35:52;27.50;;;19.27;;
11048;SDS011;5577;42.706;23.160;2023-01-16T11:38:45;32.27;;;20.80;;
11048;SDS011;5577;42.706;23.160;2023-01-16T11:41:34;41.33;;;26.17;;
11048;SDS011;5577;42.706;23.160;2023-01-16T11:44:26;40.50;;;26.47;;
11048;SDS011;5577;42.706;23.160;2023-01-16T11:47:31;38.87;;;23.30;;
11048;SDS011;5577;42.706;23.160;2023-01-16T11:50:42;40.10;;;27.37;;
11048;SDS011;5577;42.706;23.160;2023-01-16T11:53:33;32.70;;;21.43;;
11048;SDS011;5577;42.706;23.160;2023-01-16T12:09:07;33.40;;;22.47;;
11048;SDS011;5577;42.706;23.160;2023-01-16T12:15:30;30.57;;;20.13;;
11048;SDS011;5577;42.706;23.160;2023-01-16T12:18:43;39.90;;;23.87;;
11048;SDS011;5577;42.706;23.160;2023-01-16T12:33:49;6.10;;;5.10;;
11048;SDS011;5577;42.706;23.160;2023-01-16T12:39:40;7.20;;;5.93;;
11048;SDS011;5577;42.706;23.160;2023-01-16T12:42:30;16.80;;;12.57;;
11048;SDS011;5577;42.706;23.160;2023-01-16T12:58:21;29.70;;;19.23;;
11048;SDS011;5577;42.706;23.160;2023-01-16T13:01:16;28.67;;;18.17;;
11048;SDS011;5577;42.706;23.160;2023-01-16T13:04:11;30.50;;;18.47;;
11048;SDS011;5577;42.706;23.160;2023-01-16T13:07:15;30.27;;;19.53;;
11048;SDS011;5577;42.706;23.160;2023-01-16T13:10:03;40.53;;;21.77;;
11048;SDS011;5577;42.706;23.160;2023-01-16T13:13:18;30.23;;;18.83;;
11048;SDS011;5577;42.706;23.160;2023-01-16T13:16:14;40.50;;;23.77;;
11048;SDS011;5577;42.706;23.160;2023-01-16T13:19:14;40.47;;;24.80;;
11048;SDS011;5577;42.706;23.160;2023-01-16T13:22:25;31.50;;;20.10;;
11048;SDS011;5577;42.706;23.160;2023-01-16T13:28:19;63.97;;;37.03;;
11048;SDS011;5577;42.706;23.160;2023-01-16T13:34:40;35.93;;;21.50;;
11048;SDS011;5577;42.706;23.160;2023-01-16T13:37:44;33.10;;;19.83;;
11048;SDS011;5577;42.706;23.160;2023-01-16T13:47:19;30.60;;;19.73;;
11048;SDS011;5577;42.706;23.160;2023-01-16T13:53:01;32.00;;;19.80;;
11048;SDS011;5577;42.706;23.160;2023-01-16T13:55:46;39.47;;;24.33;;
11048;SDS011;5577;42.706;23.160;2023-01-16T13:58:31;29.13;;;17.90;;
11048;SDS011;5577;42.706;23.160;2023-01-16T14:07:21;30.90;;;16.63;;
11048;SDS011;5577;42.706;23.160;2023-01-16T14:14:21;28.00;;;17.07;;
11048;SDS011;5577;42.706;23.160;2023-01-16T14:23:36;31.97;;;18.77;;
11048;SDS011;5577;42.706;23.160;2023-01-16T14:26:50;32.07;;;19.93;;
11048;SDS011;5577;42.706;23.160;2023-01-16T14:29:43;34.87;;;20.97;;
11048;SDS011;5577;42.706;23.160;2023-01-16T14:32:32;33.53;;;21.53;;
11048;SDS011;5577;42.706;23.160;2023-01-16T14:35:20;33.93;;;21.13;;
11048;SDS011;5577;42.706;23.160;2023-01-16T14:38:15;28.33;;;17.73;;
11048;SDS011;5577;42.706;23.160;2023-01-16T14:41:03;30.73;;;18.93;;
11048;SDS011;5577;42.706;23.160;2023-01-16T14:47:23;32.87;;;19.67;;
11048;SDS011;5577;42.706;23.160;2023-01-16T14:50:41;33.40;;;19.33;;
11048;SDS011;5577;42.706;23.160;2023-01-16T14:53:48;34.00;;;21.20;;
11048;SDS011;5577;42.706;23.160;2023-01-16T15:02:50;30.70;;;18.50;;
11048;SDS011;5577;42.706;23.160;2023-01-16T15:05:52;32.00;;;20.10;;
11048;SDS011;5577;42.706;23.160;2023-01-16T15:08:40;31.37;;;19.13;;
11048;SDS011;5577;42.706;23.160;2023-01-16T15:11:28;33.33;;;19.00;;
11048;SDS011;5577;42.706;23.160;2023-01-16T15:14:25;32.07;;;19.07;;
11048;SDS011;5577;42.706;23.160;2023-01-16T15:20:28;31.57;;;17.87;;
11048;SDS011;5577;42.706;23.160;2023-01-16T15:26:20;32.47;;;19.30;;
11048;SDS011;5577;42.706;23.160;2023-01-16T15:31:56;32.13;;;20.27;;
11048;SDS011;5577;42.706;23.160;2023-01-16T15:34:46;35.30;;;21.80;;
11048;SDS011;5577;42.706;23.160;2023-01-16T15:37:31;41.40;;;22.97;;
11048;SDS011;5577;42.706;23.160;2023-01-16T15:40:27;32.80;;;19.53;;
11048;SDS011;5577;42.706;23.160;2023-01-16T15:43:12;32.83;;;19.40;;
11048;SDS011;5577;42.706;23.160;2023-01-16T15:46:18;30.40;;;18.20;;
11048;SDS011;5577;42.706;23.160;2023-01-16T15:49:34;28.53;;;18.33;;
11048;SDS011;5577;42.706;23.160;2023-01-16T15:52:30;34.53;;;21.37;;
11048;SDS011;5577;42.706;23.160;2023-01-16T15:55:29;31.53;;;18.97;;
11048;SDS011;5577;42.706;23.160;2023-01-16T15:58:23;34.17;;;19.77;;
11048;SDS011;5577;42.706;23.160;2023-01-16T16:01:08;35.23;;;22.50;;
11048;SDS011;5577;42.706;23.160;2023-01-16T16:03:54;37.93;;;22.50;;
11048;SDS011;5577;42.706;23.160;2023-01-16T16:06:39;40.17;;;25.07;;
11048;SDS011;5577;42.706;23.160;2023-01-16T16:09:25;38.43;;;23.53;;
11048;SDS011;5577;42.706;23.160;2023-01-16T16:12:11;39.97;;;23.77;;
11048;SDS011;5577;42.706;23.160;2023-01-16T16:15:02;46.37;;;29.60;;
11048;SDS011;5577;42.706;23.160;2023-01-16T16:18:19;38.83;;;25.13;;
11048;SDS011;5577;42.706;23.160;2023-01-16T16:21:05;40.63;;;23.67;;
11048;SDS011;5577;42.706;23.160;2023-01-16T16:24:02;42.37;;;25.13;;
11048;SDS011;5577;42.706;23.160;2023-01-16T16:26:48;42.87;;;24.67;;
11048;SDS011;5577;42.706;23.160;2023-01-16T16:29:33;42.30;;;24.93;;
11048;SDS011;5577;42.706;23.160;2023-01-16T16:32:18;49.27;;;27.10;;
11048;SDS011;5577;42.706;23.160;2023-01-16T16:35:03;58.63;;;32.27;;
11048;SDS011;5577;42.706;23.160;2023-01-16T16:37:48;43.67;;;26.07;;
11048;SDS011;5577;42.706;23.160;2023-01-16T16:40:31;35.37;;;22.33;;
11048;SDS011;5577;42.706;23.160;2023-01-16T16:43:15;42.67;;;25.03;;
11048;SDS011;5577;42.706;23.160;2023-01-16T16:46:38;37.20;;;21.10;;
11048;SDS011;5577;42.706;23.160;2023-01-16T16:52:20;45.20;;;25.80;;
11048;SDS011;5577;42.706;23.160;2023-01-16T16:55:04;42.57;;;24.03;;
11048;SDS011;5577;42.706;23.160;2023-01-16T16:58:05;49.10;;;27.90;;
11048;SDS011;5577;42.706;23.160;2023-01-16T17:00:57;41.10;;;23.00;;
11048;SDS011;5577;42.706;23.160;2023-01-16T17:03:41;41.23;;;24.10;;
11048;SDS011;5577;42.706;23.160;2023-01-16T17:06:28;58.97;;;32.43;;
11048;SDS011;5577;42.706;23.160;2023-01-16T17:09:15;43.40;;;25.53;;
11048;SDS011;5577;42.706;23.160;2023-01-16T17:12:13;49.87;;;28.47;;
11048;SDS011;5577;42.706;23.160;2023-01-16T17:14:59;42.33;;;24.90;;
11048;SDS011;5577;42.706;23.160;2023-01-16T17:17:43;53.27;;;34.97;;
11048;SDS011;5577;42.706;23.160;2023-01-16T17:20:28;62.30;;;35.87;;
11048;SDS011;5577;42.706;23.160;2023-01-16T17:23:13;49.30;;;29.97;;
11048;SDS011;5577;42.706;23.160;2023-01-16T17:25:58;47.90;;;29.73;;
11048;SDS011;5577;42.706;23.160;2023-01-16T17:28:42;43.27;;;27.37;;
11048;SDS011;5577;42.706;23.160;2023-01-16T17:31:27;49.80;;;29.30;;
11048;SDS011;5577;42.706;23.160;2023-01-16T17:34:14;47.73;;;27.97;;
11048;SDS011;5577;42.706;23.160;2023-01-16T17:37:00;45.07;;;25.80;;
11048;SDS011;5577;42.706;23.160;2023-01-16T17:39:44;45.13;;;27.07;;
11048;SDS011;5577;42.706;23.160;2023-01-16T17:42:28;43.63;;;26.77;;
11048;SDS011;5577;42.706;23.160;2023-01-16T17:45:42;42.77;;;25.03;;
11048;SDS011;5577;42.706;23.160;2023-01-16T17:48:43;47.17;;;27.50;;
11048;SDS011;5577;42.706;23.160;2023-01-16T17:51:27;42.63;;;26.43;;
11048;SDS011;5577;42.706;23.160;2023-01-16T17:54:11;47.83;;;27.97;;
11048;SDS011;5577;42.706;23.160;2023-01-16T17:57:15;46.23;;;27.20;;
11048;SDS011;5577;42.706;23.160;2023-01-16T17:59:59;44.70;;;28.00;;
11048;SDS011;5577;42.706;23.160;2023-01-16T18:02:45;44.53;;;28.27;;
11048;SDS011;5577;42.706;23.160;2023-01-16T18:05:31;43.50;;;26.70;;
11048;SDS011;5577;42.706;23.160;2023-01-16T18:08:16;44.67;;;26.47;;
11048;SDS011;5577;42.706;23.160;2023-01-16T18:11:01;49.80;;;26.57;;
11048;SDS011;5577;42.706;23.160;2023-01-16T18:14:09;42.93;;;26.37;;
11048;SDS011;5577;42.706;23.160;2023-01-16T18:17:13;44.73;;;25.33;;
11048;SDS011;5577;42.706;23.160;2023-01-16T18:20:07;67.10;;;38.23;;
11048;SDS011;5577;42.706;23.160;2023-01-16T18:22:52;55.70;;;31.93;;
11048;SDS011;5577;42.706;23.160;2023-01-16T18:25:35;49.60;;;29.00;;
11048;SDS011;5577;42.706;23.160;2023-01-16T18:28:20;50.17;;;31.40;;
11048;SDS011;5577;42.706;23.160;2023-01-16T18:31:04;41.93;;;25.63;;
11048;SDS011;5577;42.706;23.160;2023-01-16T18:33:49;41.03;;;24.47;;
11048;SDS011;5577;42.706;23.160;2023-01-16T18:36:36;40.70;;;24.07;;
11048;SDS011;5577;42.706;23.160;2023-01-16T18:39:20;41.57;;;24.40;;
11048;SDS011;5577;42.706;23.160;2023-01-16T18:42:23;47.10;;;26.07;;
11048;SDS011;5577;42.706;23.160;2023-01-16T18:45:26;39.10;;;24.13;;
11048;SDS011;5577;42.706;23.160;2023-01-16T18:48:30;43.57;;;25.47;;
11048;SDS011;5577;42.706;23.160;2023-01-16T18:51:32;43.20;;;25.17;;
11048;SDS011;5577;42.706;23.160;2023-01-16T18:54:35;45.43;;;25.20;;
11048;SDS011;5577;42.706;23.160;2023-01-16T18:57:39;46.10;;;26.27;;
11048;SDS011;5577;42.706;23.160;2023-01-16T19:00:42;44.30;;;24.83;;
11048;SDS011;5577;42.706;23.160;2023-01-16T19:03:45;44.13;;;24.33;;
11048;SDS011;5577;42.706;23.160;2023-01-16T19:06:29;45.53;;;25.07;;
11048;SDS011;5577;42.706;23.160;2023-01-16T19:09:16;46.77;;;26.80;;
11048;SDS011;5577;42.706;23.160;2023-01-16T19:12:02;46.57;;;25.63;;
11048;SDS011;5577;42.706;23.160;2023-01-16T19:14:49;45.20;;;26.03;;
11048;SDS011;5577;42.706;23.160;2023-01-16T19:17:35;53.87;;;31.63;;
11048;SDS011;5577;42.706;23.160;2023-01-16T19:20:19;44.90;;;25.67;;
11048;SDS011;5577;42.706;23.160;2023-01-16T19:23:12;42.93;;;23.70;;
11048;SDS011;5577;42.706;23.160;2023-01-16T19:25:56;46.87;;;25.53;;
11048;SDS011;5577;42.706;23.160;2023-01-16T19:28:40;41.63;;;23.40;;
11048;SDS011;5577;42.706;23.160;2023-01-16T19:31:25;42.80;;;24.10;;
11048;SDS011;5577;42.706;23.160;2023-01-16T19:34:11;51.63;;;34.53;;
11048;SDS011;5577;42.706;23.160;2023-01-16T19:36:55;42.53;;;26.90;;
11048;SDS011;5577;42.706;23.160;2023-01-16T19:39:40;43.03;;;26.13;;